createdAt,value
2019-02-21T00:00:37.692Z,19.63
2019-02-21T00:03:06.250Z,18.30
2019-02-21T00:05:34.691Z,18.27
2019-02-21T00:08:03.114Z,20.13
2019-02-21T00:10:31.593Z,20.43
2019-02-21T00:13:00.141Z,15.57
2019-02-21T00:15:28.586Z,19.83
2019-02-21T00:17:57.098Z,17.57
2019-02-21T00:20:25.598Z,17.97
2019-02-21T00:22:54.066Z,17.20
2019-02-21T00:25:22.527Z,16.67
2019-02-21T00:27:50.955Z,19.07
2019-02-21T00:30:19.410Z,19.43
2019-02-21T00:32:47.836Z,18.93
2019-02-21T00:35:16.295Z,19.07
2019-02-21T00:37:44.773Z,16.57
2019-02-21T00:40:13.247Z,19.17
2019-02-21T00:42:41.680Z,18.67
2019-02-21T00:45:10.299Z,17.77
2019-02-21T00:47:38.731Z,19.77
2019-02-21T00:50:07.159Z,17.40
2019-02-21T00:52:35.615Z,21.27
2019-02-21T00:55:09.382Z,15.83
2019-02-21T00:57:37.889Z,19.63
2019-02-21T01:00:12.968Z,17.60
2019-02-21T01:02:44.624Z,18.47
2019-02-21T01:05:22.594Z,17.20
2019-02-21T01:07:51.099Z,17.97
2019-02-21T01:10:19.539Z,20.10
2019-02-21T01:12:48.129Z,15.93
2019-02-21T01:15:16.627Z,17.03
2019-02-21T01:17:45.085Z,18.10
2019-02-21T01:20:13.515Z,20.17
2019-02-21T01:22:42.053Z,18.57
2019-02-21T01:25:10.546Z,18.63
2019-02-21T01:27:39.071Z,17.87
2019-02-21T01:30:08.341Z,20.53
2019-02-21T01:32:36.800Z,19.90
2019-02-21T01:35:06.571Z,22.40
2019-02-21T01:37:36.639Z,18.17
2019-02-21T01:40:07.710Z,16.93
2019-02-21T01:42:36.231Z,19.27
2019-02-21T01:45:06.691Z,17.13
2019-02-21T01:47:35.161Z,17.13
2019-02-21T01:50:04.054Z,19.83
2019-02-21T01:52:32.499Z,16.40
2019-02-21T01:55:01.003Z,17.57
2019-02-21T01:57:29.503Z,19.70
2019-02-21T01:59:58.024Z,18.57
2019-02-21T02:02:26.464Z,18.47
2019-02-21T02:04:54.977Z,16.40
2019-02-21T02:07:23.403Z,16.13
2019-02-21T02:09:51.848Z,18.13
2019-02-21T02:12:20.361Z,16.83
2019-02-21T02:14:48.867Z,17.10
2019-02-21T02:17:17.331Z,16.50
2019-02-21T02:19:45.783Z,16.03
2019-02-21T02:22:14.231Z,18.37
2019-02-21T02:24:42.687Z,16.80
2019-02-21T02:27:11.118Z,16.30
2019-02-21T02:29:39.766Z,20.27
2019-02-21T02:32:09.554Z,16.23
2019-02-21T02:34:38.503Z,20.90
2019-02-21T02:37:06.948Z,16.57
2019-02-21T02:39:35.406Z,17.00
2019-02-21T02:42:03.838Z,15.27
2019-02-21T02:44:32.303Z,18.73
2019-02-21T02:47:00.727Z,16.47
2019-02-21T02:49:29.274Z,21.70
2019-02-21T02:51:57.713Z,16.63
2019-02-21T02:54:26.158Z,16.97
2019-02-21T02:56:54.643Z,16.83
2019-02-21T02:59:23.514Z,17.57
2019-02-21T03:01:51.960Z,16.10
2019-02-21T03:04:20.502Z,16.30
2019-02-21T03:06:49.012Z,17.80
2019-02-21T03:09:17.433Z,17.90
2019-02-21T03:11:45.992Z,16.03
2019-02-21T03:14:14.425Z,17.73
2019-02-21T03:16:42.875Z,17.60
2019-02-21T03:19:11.314Z,16.17
2019-02-21T03:21:39.754Z,17.97
2019-02-21T03:24:08.179Z,15.00
2019-02-21T03:26:36.632Z,16.63
2019-02-21T03:29:05.076Z,15.50
2019-02-21T03:31:33.516Z,16.13
2019-02-21T03:34:01.966Z,16.57
2019-02-21T03:36:30.531Z,17.37
2019-02-21T03:38:59.037Z,17.63
2019-02-21T03:41:27.479Z,16.43
2019-02-21T03:43:55.917Z,16.00
2019-02-21T03:46:24.372Z,18.40
2019-02-21T03:48:52.801Z,17.43
2019-02-21T03:51:21.283Z,14.47
2019-02-21T03:53:49.799Z,15.97
2019-02-21T03:56:18.262Z,18.83
2019-02-21T03:58:46.973Z,14.57
2019-02-21T04:01:15.581Z,18.37
2019-02-21T04:03:44.107Z,17.27
2019-02-21T04:06:12.639Z,17.73
2019-02-21T04:08:41.170Z,16.50
2019-02-21T04:11:09.759Z,17.50
2019-02-21T04:13:38.209Z,17.60
2019-02-21T04:16:06.709Z,17.40
2019-02-21T04:18:35.179Z,18.60
2019-02-21T04:21:03.599Z,15.93
2019-02-21T04:23:33.963Z,15.80
2019-02-21T04:26:02.427Z,16.63
2019-02-21T04:28:30.898Z,16.90
2019-02-21T04:30:59.329Z,17.37
2019-02-21T04:33:27.802Z,16.70
2019-02-21T04:35:56.251Z,19.40
2019-02-21T04:38:24.758Z,16.40
2019-02-21T04:40:53.195Z,16.00
2019-02-21T04:43:21.661Z,18.33
2019-02-21T04:45:50.088Z,16.60
2019-02-21T04:48:18.550Z,18.00
2019-02-21T04:50:47.090Z,18.83
2019-02-21T04:53:15.531Z,17.87
2019-02-21T04:55:43.964Z,17.10
2019-02-21T04:58:12.451Z,15.33
2019-02-21T05:00:40.940Z,18.77
2019-02-21T05:03:09.375Z,18.47
2019-02-21T05:05:37.823Z,16.50
2019-02-21T05:08:06.364Z,17.40
2019-02-21T05:10:34.898Z,18.63
2019-02-21T05:13:03.354Z,17.73
2019-02-21T05:15:31.826Z,16.53
2019-02-21T05:18:00.252Z,19.10
2019-02-21T05:20:28.718Z,19.80
2019-02-21T05:22:57.240Z,20.50
2019-02-21T05:25:25.683Z,18.40
2019-02-21T05:27:55.089Z,19.43
2019-02-21T05:30:25.327Z,18.10
2019-02-21T05:33:07.503Z,22.37
2019-02-21T05:35:37.617Z,22.40
2019-02-21T05:38:16.471Z,18.53
2019-02-21T05:40:46.595Z,19.73
2019-02-21T05:43:22.732Z,20.67
2019-02-21T05:46:02.124Z,22.17
2019-02-21T05:48:40.236Z,24.73
2019-02-21T05:51:15.826Z,29.60
2019-02-21T05:53:45.950Z,26.83
2019-02-21T05:56:32.304Z,26.00
2019-02-21T05:59:05.351Z,23.57
2019-02-21T06:01:47.429Z,22.53
2019-02-21T06:04:20.488Z,23.13
2019-02-21T06:07:09.870Z,20.83
2019-02-21T06:09:42.666Z,19.07
2019-02-21T06:12:12.844Z,23.17
2019-02-21T06:14:42.937Z,21.90
2019-02-21T06:17:21.886Z,20.97
2019-02-21T06:19:54.415Z,19.67
2019-02-21T06:22:27.063Z,22.30
2019-02-21T06:25:09.439Z,21.17
2019-02-21T06:27:39.607Z,23.90
2019-02-21T06:30:10.586Z,23.30
2019-02-21T06:32:40.848Z,23.50
2019-02-21T06:35:10.152Z,20.63
2019-02-21T06:37:38.670Z,24.83
2019-02-21T06:40:07.572Z,23.63
2019-02-21T06:42:36.032Z,19.63
2019-02-21T06:45:05.598Z,23.73
2019-02-21T06:47:34.044Z,26.83
2019-02-21T06:50:02.587Z,26.27
2019-02-21T06:52:31.089Z,36.30
2019-02-21T06:55:02.067Z,33.83
2019-02-21T06:57:29.735Z,29.43
2019-02-21T06:59:58.168Z,32.17
2019-02-21T07:02:28.148Z,31.67
2019-02-21T07:04:56.895Z,26.17
2019-02-21T07:07:25.497Z,24.20
2019-02-21T07:09:53.940Z,24.60
2019-02-21T07:12:22.378Z,21.43
2019-02-21T07:14:50.841Z,24.40
2019-02-21T07:17:19.278Z,24.90
2019-02-21T07:19:47.728Z,25.63
2019-02-21T07:22:18.145Z,30.67
2019-02-21T07:24:48.003Z,27.50
2019-02-21T07:27:16.442Z,24.37
2019-02-21T07:29:44.965Z,25.27
2019-02-21T07:32:13.400Z,22.47
2019-02-21T07:34:41.866Z,25.37
2019-02-21T07:37:18.184Z,22.67
2019-02-21T07:39:40.594Z,21.30
2019-02-21T07:42:09.027Z,24.50
2019-02-21T07:44:37.486Z,24.87
2019-02-21T07:47:05.915Z,21.33
2019-02-21T07:49:34.376Z,21.40
2019-02-21T07:52:05.388Z,21.50
2019-02-21T07:54:32.987Z,21.47
2019-02-21T07:57:01.988Z,19.87
2019-02-21T07:59:30.580Z,23.80
2019-02-21T08:01:59.119Z,23.27
2019-02-21T08:04:27.557Z,21.40
2019-02-21T08:06:56.008Z,23.90
2019-02-21T08:09:24.548Z,19.67
2019-02-21T08:11:53.098Z,22.47
2019-02-21T08:14:21.519Z,23.47
2019-02-21T08:16:49.999Z,22.27
2019-02-21T08:19:18.440Z,22.50
2019-02-21T08:21:46.956Z,20.97
2019-02-21T08:24:15.555Z,20.00
2019-02-21T08:26:44.188Z,23.63
2019-02-21T08:29:12.620Z,23.30
2019-02-21T08:31:41.075Z,24.90
2019-02-21T08:34:11.227Z,21.53
2019-02-21T08:36:39.708Z,23.23
2019-02-21T08:39:09.397Z,24.93
2019-02-21T08:41:37.862Z,22.67
2019-02-21T08:44:06.296Z,21.33
2019-02-21T08:46:34.829Z,21.83
2019-02-21T08:49:03.259Z,22.50
2019-02-21T08:51:31.723Z,24.47
2019-02-21T08:54:00.156Z,23.97
2019-02-21T08:56:29.961Z,21.70
2019-02-21T08:58:58.630Z,21.23
2019-02-21T09:01:27.071Z,21.70
2019-02-21T09:03:55.687Z,21.37
2019-02-21T09:06:24.843Z,22.47
2019-02-21T09:08:53.529Z,20.20
2019-02-21T09:11:22.108Z,24.30
2019-02-21T09:13:50.573Z,23.67
2019-02-21T09:16:19.017Z,22.10
2019-02-21T09:18:47.579Z,22.33
2019-02-21T09:21:16.015Z,21.73
2019-02-21T09:23:44.579Z,23.30
2019-02-21T09:26:13.107Z,24.40
2019-02-21T09:28:41.604Z,27.07
2019-02-21T09:31:10.119Z,20.23
2019-02-21T09:33:38.614Z,22.93
2019-02-21T09:36:07.115Z,23.93
2019-02-21T09:38:35.590Z,23.37
2019-02-21T09:41:04.587Z,24.07
2019-02-21T09:43:33.175Z,21.30
2019-02-21T09:46:01.701Z,22.77
2019-02-21T09:48:30.179Z,26.03
2019-02-21T09:50:58.631Z,28.03
2019-02-21T09:53:27.076Z,27.77
2019-02-21T09:55:55.555Z,26.80
2019-02-21T09:58:24.176Z,23.90
2019-02-21T10:00:52.640Z,25.77
2019-02-21T10:03:21.089Z,28.77
2019-02-21T10:05:49.940Z,24.53
2019-02-21T10:08:18.564Z,23.83
2019-02-21T10:10:47.088Z,24.10
2019-02-21T10:13:15.525Z,25.63
2019-02-21T10:15:43.976Z,21.37
2019-02-21T10:18:12.427Z,24.03
2019-02-21T10:20:40.989Z,22.37
2019-02-21T10:23:09.415Z,23.90
2019-02-21T10:25:37.986Z,25.37
2019-02-21T10:28:06.506Z,24.37
2019-02-21T10:30:36.364Z,25.93
2019-02-21T10:33:05.137Z,23.57
2019-02-21T10:35:33.599Z,25.57
2019-02-21T10:38:02.053Z,26.63
2019-02-21T10:40:32.730Z,28.43
2019-02-21T10:43:00.802Z,24.70
2019-02-21T10:45:29.251Z,22.83
2019-02-21T10:47:57.783Z,23.97
2019-02-21T10:50:26.220Z,24.47
2019-02-21T10:52:54.682Z,24.77
2019-02-21T10:55:23.492Z,27.27
2019-02-21T10:57:51.967Z,26.53
2019-02-21T11:00:26.401Z,29.13
2019-02-21T11:02:56.965Z,31.83
2019-02-21T11:05:25.568Z,28.60
2019-02-21T11:07:54.159Z,28.37
2019-02-21T11:10:29.863Z,28.93
2019-02-21T11:12:58.391Z,32.13
2019-02-21T11:15:27.126Z,30.50
2019-02-21T11:17:55.964Z,29.97
2019-02-21T11:20:24.446Z,32.33
2019-02-21T11:22:52.950Z,29.10
2019-02-21T11:25:21.626Z,35.40
2019-02-21T11:27:50.280Z,35.73
2019-02-21T11:30:22.392Z,35.03
2019-02-21T11:32:50.850Z,33.83
2019-02-21T11:35:19.422Z,31.40
2019-02-21T11:37:47.950Z,32.97
2019-02-21T11:40:17.765Z,33.13
2019-02-21T11:42:46.448Z,34.33
2019-02-21T11:45:21.499Z,33.63
2019-02-21T11:47:49.956Z,31.63
2019-02-21T11:50:19.137Z,30.80
2019-02-21T11:52:47.651Z,33.43
2019-02-21T11:55:26.185Z,34.30
2019-02-21T11:57:54.716Z,35.03
2019-02-21T12:00:30.684Z,32.93
2019-02-21T12:02:59.172Z,30.17
2019-02-21T12:05:31.379Z,33.33
2019-02-21T12:07:57.857Z,29.73
2019-02-21T12:10:26.530Z,34.97
2019-02-21T12:12:55.126Z,33.47
2019-02-21T12:15:23.698Z,31.47
2019-02-21T12:17:52.124Z,29.40
2019-02-21T12:20:21.026Z,30.87
2019-02-21T12:22:49.616Z,30.27
2019-02-21T12:25:22.716Z,32.07
2019-02-21T12:27:51.243Z,29.53
2019-02-21T12:30:20.827Z,31.73
2019-02-21T12:32:49.680Z,30.00
2019-02-21T12:35:28.745Z,28.13
2019-02-21T12:37:48.671Z,31.77
2019-02-21T12:40:19.124Z,29.83
2019-02-21T12:42:47.599Z,27.83
2019-02-21T12:45:20.568Z,30.13
2019-02-21T12:47:53.380Z,29.40
2019-02-21T12:50:19.290Z,28.37
2019-02-21T12:52:47.721Z,29.50
2019-02-21T12:55:26.967Z,28.03
2019-02-21T12:57:46.507Z,30.87
2019-02-21T13:00:19.715Z,31.80
2019-02-21T13:02:48.135Z,30.90
2019-02-21T13:05:16.637Z,30.90
2019-02-21T13:07:45.111Z,26.63
2019-02-21T13:10:18.304Z,31.47
2019-02-21T13:12:46.835Z,28.40
2019-02-21T13:15:15.935Z,28.63
2019-02-21T13:17:44.494Z,27.23
2019-02-21T13:20:14.215Z,29.70
2019-02-21T13:22:42.680Z,27.50
2019-02-21T13:25:13.252Z,27.90
2019-02-21T13:27:41.734Z,26.87
2019-02-21T13:30:12.996Z,31.53
2019-02-21T13:32:41.462Z,30.63
2019-02-21T13:35:10.702Z,33.20
2019-02-21T13:37:39.174Z,28.20
2019-02-21T13:40:10.575Z,28.63
2019-02-21T13:42:39.032Z,32.60
2019-02-21T13:45:09.668Z,28.57
2019-02-21T13:47:39.259Z,33.30
2019-02-21T13:50:16.171Z,31.47
2019-02-21T13:52:45.094Z,26.83
2019-02-21T13:55:13.747Z,33.13
2019-02-21T13:57:42.335Z,29.40
2019-02-21T14:00:13.893Z,35.07
2019-02-21T14:02:42.320Z,30.63
2019-02-21T14:05:11.008Z,32.60
2019-02-21T14:07:39.508Z,31.60
2019-02-21T14:10:13.016Z,28.57
2019-02-21T14:12:41.457Z,27.83
2019-02-21T14:15:15.857Z,25.43
2019-02-21T14:17:46.539Z,32.90
2019-02-21T14:20:14.780Z,29.10
2019-02-21T14:22:43.207Z,31.87
2019-02-21T14:25:11.842Z,27.47
2019-02-21T14:27:40.286Z,27.77
2019-02-21T14:30:14.391Z,27.67
2019-02-21T14:32:42.959Z,28.17
2019-02-21T14:35:12.767Z,36.83
2019-02-21T14:37:41.275Z,30.93
2019-02-21T14:40:11.917Z,29.23
2019-02-21T14:42:40.453Z,29.43
2019-02-21T14:45:12.555Z,28.00
2019-02-21T14:47:41.306Z,23.80
2019-02-21T14:50:12.012Z,22.07
2019-02-21T14:52:40.542Z,24.90
2019-02-21T14:55:14.133Z,24.57
2019-02-21T14:57:42.685Z,24.47
2019-02-21T15:00:22.462Z,28.23
2019-02-21T15:02:51.161Z,23.20
2019-02-21T15:05:20.161Z,24.67
2019-02-21T15:07:48.738Z,23.63
2019-02-21T15:10:17.436Z,23.03
2019-02-21T15:12:46.025Z,21.90
2019-02-21T15:15:23.065Z,26.30
2019-02-21T15:17:51.527Z,26.10
2019-02-21T15:20:20.203Z,23.47
2019-02-21T15:22:48.664Z,20.30
2019-02-21T15:25:17.096Z,19.60
2019-02-21T15:27:46.762Z,20.13
2019-02-21T15:30:20.793Z,23.23
2019-02-21T15:32:49.732Z,23.73
2019-02-21T15:35:19.461Z,22.33
2019-02-21T15:37:48.369Z,25.70
2019-02-21T15:40:16.885Z,22.73
2019-02-21T15:42:45.366Z,26.60
2019-02-21T15:45:23.009Z,24.47
2019-02-21T15:47:46.551Z,21.43
2019-02-21T15:50:15.625Z,21.13
2019-02-21T15:52:45.446Z,24.27
2019-02-21T15:55:16.215Z,21.40
2019-02-21T15:57:44.716Z,23.40
2019-02-21T16:00:16.047Z,22.03
2019-02-21T16:02:44.522Z,24.93
2019-02-21T16:05:13.104Z,26.93
2019-02-21T16:07:41.647Z,24.17
2019-02-21T16:10:12.989Z,24.97
2019-02-21T16:12:41.999Z,30.83
2019-02-21T16:15:16.042Z,24.27
2019-02-21T16:17:42.820Z,25.33
2019-02-21T16:20:13.914Z,38.07
2019-02-21T16:22:42.902Z,27.00
2019-02-21T16:25:14.381Z,25.97
2019-02-21T16:27:42.828Z,38.07
2019-02-21T16:30:12.754Z,31.23
2019-02-21T16:32:41.320Z,28.70
2019-02-21T16:35:12.270Z,29.00
2019-02-21T16:37:40.711Z,28.27
2019-02-21T16:40:12.163Z,25.37
2019-02-21T16:42:40.749Z,27.73
2019-02-21T16:45:11.652Z,30.40
2019-02-21T16:47:40.179Z,26.83
2019-02-21T16:50:11.303Z,28.20
2019-02-21T16:52:39.774Z,25.30
2019-02-21T16:55:19.458Z,27.17
2019-02-21T16:57:47.895Z,24.83
2019-02-21T17:00:18.216Z,24.77
2019-02-21T17:02:46.784Z,26.77
2019-02-21T17:05:15.901Z,29.67
2019-02-21T17:07:44.523Z,27.90
2019-02-21T17:10:17.944Z,30.13
2019-02-21T17:12:46.484Z,29.57
2019-02-21T17:15:16.117Z,28.67
2019-02-21T17:17:44.799Z,26.47
2019-02-21T17:20:18.458Z,28.37
2019-02-21T17:22:46.999Z,27.83
2019-02-21T17:25:16.330Z,28.33
2019-02-21T17:27:45.796Z,29.23
2019-02-21T17:30:18.523Z,31.93
2019-02-21T17:32:47.120Z,27.33
2019-02-21T17:35:15.739Z,31.30
2019-02-21T17:37:44.456Z,32.87
2019-02-21T17:40:18.953Z,30.27
2019-02-21T17:42:47.423Z,30.13
2019-02-21T17:45:15.952Z,31.67
2019-02-21T17:47:44.564Z,27.90
2019-02-21T17:50:17.776Z,32.87
2019-02-21T17:52:46.393Z,30.60
2019-02-21T17:55:16.171Z,32.23
2019-02-21T17:57:44.835Z,29.67
2019-02-21T18:00:25.572Z,30.13
2019-02-21T18:02:54.179Z,35.00
2019-02-21T18:05:22.684Z,32.60
2019-02-21T18:07:51.214Z,36.80
2019-02-21T18:10:19.727Z,33.33
2019-02-21T18:12:48.268Z,24.93
2019-02-21T18:15:17.738Z,25.37
2019-02-21T18:17:46.267Z,29.57
2019-02-21T18:20:15.739Z,26.63
2019-02-21T18:22:44.254Z,31.43
2019-02-21T18:25:32.719Z,26.73
2019-02-21T18:28:01.186Z,26.67
2019-02-21T18:30:29.694Z,24.97
2019-02-21T18:32:58.240Z,27.50
2019-02-21T18:35:26.762Z,25.13
2019-02-21T18:37:55.482Z,24.10
2019-02-21T18:40:26.448Z,26.00
2019-02-21T18:42:55.138Z,23.37
2019-02-21T18:45:23.744Z,24.80
2019-02-21T18:47:52.432Z,27.70
2019-02-21T18:50:21.047Z,29.97
2019-02-21T18:52:49.597Z,25.80
2019-02-21T18:55:18.059Z,33.03
2019-02-21T18:57:46.561Z,29.33
2019-02-21T19:00:23.646Z,26.67
2019-02-21T19:02:52.241Z,28.90
2019-02-21T19:05:21.552Z,28.67
2019-02-21T19:07:58.334Z,31.57
2019-02-21T19:10:21.364Z,28.07
2019-02-21T19:12:49.867Z,37.43
2019-02-21T19:15:21.994Z,32.20
2019-02-21T19:17:50.519Z,32.97
2019-02-21T19:20:22.065Z,28.47
2019-02-21T19:22:50.867Z,28.67
2019-02-21T19:25:19.334Z,31.60
2019-02-21T19:27:47.942Z,28.47
2019-02-21T19:30:34.479Z,28.07
2019-02-21T19:33:03.053Z,29.17
2019-02-21T19:35:31.659Z,29.30
2019-02-21T19:38:09.734Z,29.10
2019-02-21T19:40:30.511Z,31.27
2019-02-21T19:42:59.022Z,27.90
2019-02-21T19:45:27.524Z,26.80
2019-02-21T19:47:56.139Z,32.13
2019-02-21T19:50:25.006Z,30.03
2019-02-21T19:52:53.708Z,28.57
2019-02-21T19:55:22.370Z,28.93
2019-02-21T19:57:50.974Z,26.53
2019-02-21T20:00:25.746Z,29.17
2019-02-21T20:02:55.129Z,28.20
2019-02-21T20:05:23.743Z,26.40
2019-02-21T20:07:52.430Z,27.77
2019-02-21T20:10:20.966Z,29.13
2019-02-21T20:12:49.429Z,29.03
2019-02-21T20:15:17.944Z,30.17
2019-02-21T20:17:46.496Z,30.70
2019-02-21T20:20:20.214Z,29.83
2019-02-21T20:22:48.693Z,28.47
2019-02-21T20:25:17.177Z,30.37
2019-02-21T20:27:46.013Z,29.10
2019-02-21T20:30:16.508Z,28.47
2019-02-21T20:32:45.159Z,32.77
2019-02-21T20:35:13.667Z,33.47
2019-02-21T20:37:42.263Z,28.77
2019-02-21T20:40:11.656Z,34.63
2019-02-21T20:42:40.139Z,33.73
2019-02-21T20:45:13.270Z,29.87
2019-02-21T20:47:41.971Z,30.53
2019-02-21T20:50:12.833Z,31.50
2019-02-21T20:52:41.579Z,32.97
2019-02-21T20:55:11.298Z,34.80
2019-02-21T20:57:40.090Z,33.23
2019-02-21T21:00:17.717Z,32.33
2019-02-21T21:02:46.296Z,35.20
2019-02-21T21:05:15.519Z,34.67
2019-02-21T21:07:44.045Z,35.73
2019-02-21T21:10:14.726Z,34.70
2019-02-21T21:12:43.156Z,35.67
2019-02-21T21:15:13.472Z,35.23
2019-02-21T21:17:41.988Z,36.67
2019-02-21T21:20:16.626Z,34.40
2019-02-21T21:22:42.770Z,36.33
2019-02-21T21:25:13.860Z,33.97
2019-02-21T21:27:42.363Z,39.80
2019-02-21T21:30:13.273Z,39.40
2019-02-21T21:32:41.736Z,40.93
2019-02-21T21:35:10.450Z,36.73
2019-02-21T21:37:39.058Z,38.43
2019-02-21T21:40:10.878Z,38.27
2019-02-21T21:42:39.372Z,40.23
2019-02-21T21:45:10.966Z,43.90
2019-02-21T21:47:39.419Z,43.97
2019-02-21T21:50:10.691Z,40.70
2019-02-21T21:52:39.212Z,38.03
2019-02-21T21:55:07.858Z,40.90
2019-02-21T21:57:36.368Z,37.57
2019-02-21T22:00:08.994Z,44.67
2019-02-21T22:02:37.555Z,36.90
2019-02-21T22:05:08.572Z,39.60
2019-02-21T22:07:37.163Z,40.50
2019-02-21T22:10:08.701Z,39.77
2019-02-21T22:12:37.243Z,47.00
2019-02-21T22:15:08.916Z,42.07
2019-02-21T22:17:37.670Z,44.50
2019-02-21T22:20:07.436Z,45.00
2019-02-21T22:22:36.060Z,48.87
2019-02-21T22:25:06.863Z,42.47
2019-02-21T22:27:35.471Z,42.03
2019-02-21T22:30:05.053Z,45.60
2019-02-21T22:32:33.552Z,41.80
2019-02-21T22:35:01.995Z,43.87
2019-02-21T22:37:30.475Z,45.10
2019-02-21T22:39:58.958Z,42.70
2019-02-21T22:42:27.451Z,45.03
2019-02-21T22:44:55.910Z,43.70
2019-02-21T22:47:24.353Z,44.10
2019-02-21T22:49:52.836Z,49.63
2019-02-21T22:52:21.262Z,48.60
2019-02-21T22:54:49.801Z,47.47
2019-02-21T22:57:18.385Z,53.50
2019-02-21T22:59:55.754Z,53.17
2019-02-21T23:02:24.812Z,49.83
2019-02-21T23:04:59.235Z,42.23
2019-02-21T23:07:33.865Z,54.57
2019-02-21T23:10:02.404Z,48.43
2019-02-21T23:12:30.918Z,47.57
2019-02-21T23:14:59.487Z,47.60
2019-02-21T23:17:28.077Z,51.30
2019-02-21T23:19:56.692Z,48.77
2019-02-21T23:22:25.132Z,51.97
2019-02-21T23:24:53.700Z,46.33
2019-02-21T23:27:22.182Z,46.17
2019-02-21T23:29:50.648Z,48.90
2019-02-21T23:32:19.088Z,51.33
2019-02-21T23:34:47.581Z,47.60
2019-02-21T23:37:16.047Z,56.83
2019-02-21T23:39:44.971Z,56.83
2019-02-21T23:42:13.473Z,54.73
2019-02-21T23:44:41.911Z,49.90
2019-02-21T23:47:10.381Z,53.27
2019-02-21T23:49:38.889Z,46.83
2019-02-21T23:52:07.355Z,48.07
2019-02-21T23:54:35.799Z,62.20
2019-02-21T23:57:04.434Z,53.33
2019-02-21T23:59:32.898Z,45.73
